Time;durP1;ratioP1;P1;durP2;ratioP2;P2;SDS_P1;SDS_P2;PMS_P1;PMS_P2;Temp;Humidity;BMP_temperature;BMP_pressure;BME280_temperature;BME280_humidity;BME280_pressure;Samples;Min_cycle;Max_cycle;Signal;HPM_P1;HPM_P2
2021/01/08 00:00:20;;;;;;;10.68;9.27;;;1.50;99.90;;;;;;6098336;23;20177;-82
2021/01/08 00:02:47;;;;;;;11.88;8.13;;;1.50;99.90;;;;;;6097933;23;20279;-82
2021/01/08 00:05:13;;;;;;;11.88;9.07;;;1.60;99.90;;;;;;6098057;23;20189;-81
2021/01/08 00:07:41;;;;;;;9.43;7.55;;;1.60;99.90;;;;;;6098525;23;20201;-82
2021/01/08 00:10:08;;;;;;;12.57;10.18;;;1.60;99.90;;;;;;6098578;23;20200;-81
2021/01/08 00:12:36;;;;;;;12.52;9.50;;;1.60;99.90;;;;;;6098053;23;20185;-80
2021/01/08 00:15:03;;;;;;;12.85;10.10;;;1.70;99.90;;;;;;6098251;23;20193;-81
2021/01/08 00:17:30;;;;;;;11.35;9.80;;;1.80;99.90;;;;;;6097886;23;20204;-81
2021/01/08 00:19:57;;;;;;;9.63;8.50;;;1.80;99.90;;;;;;6098227;23;20184;-79
2021/01/08 00:22:24;;;;;;;14.85;9.40;;;1.80;99.90;;;;;;6097707;23;20185;-82
2021/01/08 00:24:52;;;;;;;13.80;11.68;;;1.80;99.90;;;;;;6098260;23;20507;-80
2021/01/08 00:27:18;;;;;;;13.05;9.68;;;1.90;99.90;;;;;;6098434;23;20202;-80
2021/01/08 00:29:45;;;;;;;12.60;9.52;;;1.90;99.90;;;;;;6097851;23;20201;-80
2021/01/08 00:32:12;;;;;;;10.63;9.63;;;1.90;99.90;;;;;;6097621;23;20824;-81
2021/01/08 00:34:38;;;;;;;9.73;8.52;;;2.00;99.90;;;;;;6097918;23;20185;-81
2021/01/08 00:37:05;;;;;;;10.98;9.88;;;2.00;99.90;;;;;;6098274;23;20208;-80
2021/01/08 00:39:31;;;;;;;11.60;10.10;;;1.90;99.90;;;;;;6098467;23;20193;-81
2021/01/08 00:41:59;;;;;;;10.02;7.80;;;1.90;99.90;;;;;;6099940;23;20245;-80
2021/01/08 00:44:25;;;;;;;9.43;8.43;;;2.00;99.90;;;;;;6099733;23;20181;-80
2021/01/08 00:46:51;;;;;;;12.30;8.68;;;2.00;99.90;;;;;;6099351;23;20212;-81
2021/01/08 00:49:19;;;;;;;10.30;8.80;;;2.00;99.90;;;;;;6099535;23;20223;-80
2021/01/08 00:51:46;;;;;;;10.65;8.93;;;1.90;99.90;;;;;;6099379;23;20514;-81
2021/01/08 00:54:12;;;;;;;13.73;10.15;;;2.00;99.90;;;;;;6100067;23;20184;-80
2021/01/08 00:56:38;;;;;;;9.50;8.38;;;2.00;99.90;;;;;;6099477;23;20184;-81
2021/01/08 00:59:05;;;;;;;13.07;9.95;;;2.00;99.90;;;;;;6099713;23;20204;-81
2021/01/08 01:01:31;;;;;;;10.77;9.65;;;2.00;99.90;;;;;;6099008;23;20181;-80
2021/01/08 01:03:58;;;;;;;13.40;11.43;;;2.00;99.90;;;;;;6099659;23;20236;-81
2021/01/08 01:06:25;;;;;;;13.48;9.05;;;2.10;99.90;;;;;;6099510;23;20203;-80
2021/01/08 01:08:52;;;;;;;10.25;8.77;;;2.10;99.90;;;;;;6098972;23;20534;-80
2021/01/08 01:11:19;;;;;;;11.32;7.65;;;2.10;99.90;;;;;;6099176;23;20185;-81
2021/01/08 01:13:47;;;;;;;9.68;8.43;;;2.10;99.90;;;;;;6099803;23;20192;-80
2021/01/08 01:16:14;;;;;;;9.60;8.70;;;2.10;99.90;;;;;;6099198;23;20573;-80
2021/01/08 01:18:41;;;;;;;9.23;8.40;;;2.00;99.90;;;;;;6098342;23;20204;-80
2021/01/08 01:21:07;;;;;;;9.50;8.60;;;2.10;99.90;;;;;;6099302;23;20181;-81
2021/01/08 01:23:33;;;;;;;9.93;7.18;;;2.10;99.90;;;;;;6098728;23;20195;-81
2021/01/08 01:25:59;;;;;;;9.25;7.32;;;2.00;99.90;;;;;;6099206;23;20188;-81
2021/01/08 01:28:26;;;;;;;11.15;7.45;;;2.00;99.90;;;;;;6099201;23;20205;-80
2021/01/08 01:30:52;;;;;;;9.30;7.80;;;2.10;99.90;;;;;;6099314;23;20204;-80
2021/01/08 01:33:19;;;;;;;12.10;7.78;;;2.10;99.90;;;;;;6098858;23;20185;-80
2021/01/08 01:35:45;;;;;;;7.90;6.03;;;2.10;99.90;;;;;;6099414;23;20232;-80
2021/01/08 01:38:11;;;;;;;7.78;6.97;;;2.00;99.90;;;;;;6099496;23;20248;-81
2021/01/08 01:40:38;;;;;;;9.38;7.45;;;1.90;99.90;;;;;;6099035;23;20180;-81
2021/01/08 01:43:04;;;;;;;9.20;7.22;;;1.70;99.90;;;;;;6098982;23;20180;-81
2021/01/08 01:45:30;;;;;;;8.02;6.53;;;1.70;99.90;;;;;;6098701;23;20236;-80
2021/01/08 01:47:57;;;;;;;11.30;7.43;;;1.70;99.90;;;;;;6098764;23;20204;-81
2021/01/08 01:50:24;;;;;;;8.68;6.78;;;1.70;99.90;;;;;;6098530;23;20698;-81
2021/01/08 01:52:50;;;;;;;7.93;7.13;;;1.70;99.90;;;;;;6098586;23;20185;-81
2021/01/08 01:55:17;;;;;;;12.82;8.13;;;1.70;99.90;;;;;;6098281;23;20184;-81
2021/01/08 01:57:43;;;;;;;10.93;7.63;;;1.60;99.90;;;;;;6098440;23;20212;-81
2021/01/08 02:00:10;;;;;;;11.77;8.98;;;1.60;99.90;;;;;;6099090;23;20177;-81
2021/01/08 02:02:39;;;;;;;10.02;7.97;;;1.60;99.90;;;;;;6099186;23;20185;-81
2021/01/08 02:05:09;;;;;;;8.60;7.57;;;1.60;99.90;;;;;;6099317;23;20184;-81
2021/01/08 02:07:42;;;;;;;8.98;7.90;;;1.60;99.90;;;;;;6098016;23;20204;-81
2021/01/08 02:10:10;;;;;;;8.93;7.50;;;1.60;99.90;;;;;;6098509;23;20193;-80
2021/01/08 02:12:37;;;;;;;8.48;6.93;;;1.50;99.90;;;;;;6098375;23;20184;-81
2021/01/08 02:15:05;;;;;;;10.73;8.68;;;1.50;99.90;;;;;;6098288;23;20238;-81
2021/01/08 02:17:32;;;;;;;11.95;9.30;;;1.40;99.90;;;;;;6098452;23;20207;-81
2021/01/08 02:20:01;;;;;;;8.75;7.57;;;1.40;99.90;;;;;;6098733;23;20461;-80
2021/01/08 02:22:30;;;;;;;14.38;8.93;;;1.40;99.90;;;;;;6098113;23;20184;-81
2021/01/08 02:25:08;;;;;;;13.57;8.45;;;1.40;99.90;;;;;;6098394;23;20188;-81
2021/01/08 02:27:36;;;;;;;10.60;9.25;;;1.30;99.90;;;;;;6098623;23;20209;-81
2021/01/08 02:30:03;;;;;;;12.88;9.88;;;1.30;99.90;;;;;;6097803;23;20203;-80
2021/01/08 02:32:29;;;;;;;10.68;9.63;;;1.30;99.90;;;;;;6097841;23;20669;-81
2021/01/08 02:34:56;;;;;;;11.02;9.93;;;1.30;99.90;;;;;;6097986;23;20180;-81
2021/01/08 02:37:23;;;;;;;10.35;8.60;;;1.30;99.90;;;;;;6098686;23;20201;-80
2021/01/08 02:39:50;;;;;;;14.98;8.88;;;1.40;99.90;;;;;;6098675;23;20184;-81
2021/01/08 02:42:18;;;;;;;10.27;8.85;;;1.40;99.90;;;;;;6097747;23;20499;-81
2021/01/08 02:44:44;;;;;;;14.85;11.20;;;1.40;99.90;;;;;;6097799;23;20208;-81
2021/01/08 02:47:11;;;;;;;12.30;9.77;;;1.40;99.90;;;;;;6097777;23;20216;-81
2021/01/08 02:49:37;;;;;;;15.63;10.60;;;1.40;99.90;;;;;;6098212;23;20205;-81
2021/01/08 02:52:06;;;;;;;12.18;8.77;;;1.40;99.90;;;;;;6097543;23;20213;-81
2021/01/08 02:54:33;;;;;;;13.32;9.93;;;1.40;99.90;;;;;;6097877;23;20189;-80
2021/01/08 02:57:02;;;;;;;16.13;11.18;;;1.50;99.90;;;;;;6097956;23;20184;-81
2021/01/08 02:59:30;;;;;;;12.75;10.60;;;1.50;99.90;;;;;;6098325;23;20665;-80
2021/01/08 03:01:56;;;;;;;14.15;11.40;;;1.50;99.90;;;;;;6097736;23;20180;-81
2021/01/08 03:04:23;;;;;;;11.52;10.07;;;1.60;99.90;;;;;;6097941;23;20184;-81
2021/01/08 03:06:52;;;;;;;14.52;10.68;;;1.60;99.90;;;;;;6098376;23;20648;-81
2021/01/08 03:09:19;;;;;;;17.50;11.05;;;1.60;99.90;;;;;;6097549;23;20263;-81
2021/01/08 03:11:51;;;;;;;18.13;10.93;;;1.60;99.90;;;;;;6097974;23;20185;-81
2021/01/08 03:14:17;;;;;;;13.45;10.32;;;1.70;99.90;;;;;;6098282;23;20176;-81
2021/01/08 03:16:45;;;;;;;15.85;11.27;;;1.70;99.90;;;;;;6098150;23;20189;-81
2021/01/08 03:19:11;;;;;;;13.25;11.50;;;1.80;99.90;;;;;;6098052;23;20183;-81
2021/01/08 03:21:37;;;;;;;13.07;10.90;;;1.80;99.90;;;;;;6097558;23;20655;-81
2021/01/08 03:24:04;;;;;;;15.27;11.15;;;1.90;99.90;;;;;;6097965;23;20191;-81
2021/01/08 03:26:30;;;;;;;16.60;11.80;;;1.90;99.90;;;;;;6098477;23;20185;-80
2021/01/08 03:28:56;;;;;;;13.63;10.02;;;2.00;99.90;;;;;;6097677;23;20200;-81
2021/01/08 03:31:23;;;;;;;14.88;9.45;;;2.00;99.90;;;;;;6098051;23;20496;-80
2021/01/08 03:33:50;;;;;;;13.10;9.13;;;2.00;99.90;;;;;;6097469;23;20181;-81
2021/01/08 03:36:16;;;;;;;10.05;9.05;;;2.00;99.90;;;;;;6096837;23;20210;-81
2021/01/08 03:38:42;;;;;;;12.68;8.98;;;2.00;99.90;;;;;;6097348;23;20200;-81
2021/01/08 03:41:08;;;;;;;10.43;7.90;;;2.10;99.90;;;;;;6097739;23;20703;-81
2021/01/08 03:43:34;;;;;;;12.10;9.65;;;2.10;99.90;;;;;;6097797;23;20181;-81
2021/01/08 03:46:01;;;;;;;16.17;9.27;;;2.00;99.90;;;;;;6098246;23;20192;-81
2021/01/08 03:48:28;;;;;;;10.27;8.05;;;1.90;99.90;;;;;;6100625;23;20236;-81
2021/01/08 03:50:55;;;;;;;9.60;8.52;;;1.90;99.90;;;;;;6108890;23;20536;-81
2021/01/08 03:53:21;;;;;;;12.52;9.10;;;2.00;99.90;;;;;;6109032;23;20195;-82
2021/01/08 03:55:47;;;;;;;12.88;9.00;;;2.00;99.90;;;;;;6109472;23;20185;-80
2021/01/08 03:58:13;;;;;;;12.43;9.18;;;2.00;99.90;;;;;;6110071;23;20208;-81
2021/01/08 04:00:39;;;;;;;10.07;8.88;;;2.00;99.90;;;;;;6109321;23;20181;-81
2021/01/08 04:03:06;;;;;;;12.15;9.10;;;2.00;99.90;;;;;;6109077;23;20209;-80
2021/01/08 04:05:32;;;;;;;11.57;10.00;;;2.00;99.90;;;;;;6109458;23;20495;-81
2021/01/08 04:07:59;;;;;;;9.38;7.80;;;2.00;99.90;;;;;;6109749;23;20201;-81
2021/01/08 04:10:25;;;;;;;12.00;8.82;;;2.00;99.90;;;;;;6110358;23;20201;-81
2021/01/08 04:12:51;;;;;;;9.50;8.23;;;2.00;99.90;;;;;;6110396;23;20181;-81
2021/01/08 04:15:17;;;;;;;10.65;8.73;;;2.00;99.90;;;;;;6111543;23;20191;-81
2021/01/08 04:17:47;;;;;;;12.63;9.27;;;2.00;99.90;;;;;;6111914;23;20223;-80
2021/01/08 04:20:14;;;;;;;10.52;8.45;;;2.00;99.90;;;;;;6111758;23;20495;-80
2021/01/08 04:22:40;;;;;;;12.80;7.97;;;2.00;99.90;;;;;;6111863;23;20185;-81
2021/01/08 04:25:08;;;;;;;11.75;9.23;;;2.00;99.90;;;;;;6111759;23;20185;-81
2021/01/08 04:27:34;;;;;;;11.32;8.48;;;2.00;99.90;;;;;;6111428;23;20278;-81
2021/01/08 04:30:01;;;;;;;10.18;7.85;;;2.00;99.90;;;;;;6110364;23;20676;-81
2021/01/08 04:32:37;;;;;;;11.30;8.73;;;2.00;99.90;;;;;;6110440;23;20184;-81
2021/01/08 04:35:10;;;;;;;11.52;10.00;;;2.00;99.90;;;;;;6111271;23;20172;-80
2021/01/08 04:37:36;;;;;;;9.38;8.27;;;2.00;99.90;;;;;;6111537;23;20205;-80
2021/01/08 04:40:03;;;;;;;9.60;8.00;;;2.00;99.90;;;;;;6112374;23;20188;-81
2021/01/08 04:42:33;;;;;;;10.35;7.80;;;2.00;99.90;;;;;;6112607;23;20191;-82
2021/01/08 04:44:59;;;;;;;11.13;8.75;;;2.00;99.90;;;;;;6112458;23;20185;-81
2021/01/08 04:47:27;;;;;;;11.38;7.82;;;1.90;99.90;;;;;;6110717;23;20243;-82
2021/01/08 04:49:53;;;;;;;8.65;7.22;;;1.90;99.90;;;;;;6111657;23;20207;-82
2021/01/08 04:52:20;;;;;;;10.57;8.05;;;1.90;99.90;;;;;;6111290;23;20242;-82
2021/01/08 04:54:47;;;;;;;10.00;7.38;;;1.90;99.90;;;;;;6111445;23;20181;-82
2021/01/08 04:57:16;;;;;;;9.65;7.30;;;1.80;99.90;;;;;;6111535;23;20205;-80
2021/01/08 04:59:43;;;;;;;12.07;8.02;;;1.90;99.90;;;;;;6111389;23;20187;-82
2021/01/08 05:02:09;;;;;;;11.63;8.07;;;1.80;99.90;;;;;;6111173;23;20180;-82
2021/01/08 05:04:36;;;;;;;9.43;7.78;;;1.80;99.90;;;;;;6110892;23;20192;-82
2021/01/08 05:07:02;;;;;;;12.25;8.20;;;1.60;99.90;;;;;;6110973;23;20212;-82
2021/01/08 05:09:28;;;;;;;12.18;7.60;;;1.60;99.90;;;;;;6111407;23;20201;-81
2021/01/08 05:11:56;;;;;;;9.35;7.38;;;1.70;99.90;;;;;;6110723;23;20188;-82
2021/01/08 05:14:26;;;;;;;8.50;7.60;;;1.60;99.90;;;;;;6111134;23;20208;-81
2021/01/08 05:16:55;;;;;;;9.15;8.27;;;1.60;99.90;;;;;;6110820;23;20185;-81
2021/01/08 05:19:23;;;;;;;9.07;7.72;;;1.60;99.90;;;;;;6110084;23;20500;-81
2021/01/08 05:21:50;;;;;;;9.10;8.02;;;1.50;99.90;;;;;;6110110;23;20194;-81
2021/01/08 05:24:16;;;;;;;8.18;6.25;;;1.50;99.90;;;;;;6111081;23;20185;-82
2021/01/08 05:26:43;;;;;;;11.70;8.13;;;1.50;99.90;;;;;;6110796;23;20189;-81
2021/01/08 05:29:10;;;;;;;8.05;7.20;;;1.50;99.90;;;;;;6110715;23;20184;-80
2021/01/08 05:31:36;;;;;;;8.25;7.30;;;1.50;99.90;;;;;;6109860;23;20191;-82
2021/01/08 05:34:03;;;;;;;11.45;7.93;;;1.50;99.90;;;;;;6110923;23;20189;-82
2021/01/08 05:36:30;;;;;;;11.35;8.38;;;1.50;99.90;;;;;;6111154;23;20191;-82
2021/01/08 05:38:59;;;;;;;8.75;7.90;;;1.50;99.90;;;;;;6110198;23;20205;-82
2021/01/08 05:41:26;;;;;;;8.48;7.55;;;1.50;99.90;;;;;;6109632;23;20239;-81
2021/01/08 05:43:53;;;;;;;11.77;6.95;;;1.50;99.90;;;;;;6110236;23;20192;-81
2021/01/08 05:46:20;;;;;;;7.85;6.85;;;1.50;99.90;;;;;;6110496;23;20192;-81
2021/01/08 05:48:50;;;;;;;8.80;7.93;;;1.50;99.90;;;;;;6110514;23;20201;-82
2021/01/08 05:51:18;;;;;;;11.75;6.85;;;1.60;99.90;;;;;;6110711;23;20189;-82
2021/01/08 05:53:47;;;;;;;7.93;6.75;;;1.60;99.90;;;;;;6110321;23;20180;-82
2021/01/08 05:56:16;;;;;;;10.15;7.13;;;1.60;99.90;;;;;;6111256;23;20192;-81
2021/01/08 05:58:43;;;;;;;8.63;5.90;;;1.60;99.90;;;;;;6110710;23;20201;-82
2021/01/08 06:01:09;;;;;;;9.65;6.75;;;1.70;99.90;;;;;;6110826;23;20182;-82
2021/01/08 06:03:37;;;;;;;9.52;7.25;;;1.70;99.90;;;;;;6109545;23;20192;-80
2021/01/08 06:06:06;;;;;;;10.27;9.38;;;1.50;99.90;;;;;;6109257;23;20188;-80
2021/01/08 06:08:37;;;;;;;9.20;8.00;;;1.60;99.90;;;;;;6109135;23;20204;-81
2021/01/08 06:11:06;;;;;;;8.65;6.43;;;1.50;99.90;;;;;;6109643;23;20189;-82
2021/01/08 06:13:34;;;;;;;9.10;7.85;;;1.50;99.90;;;;;;6109145;23;20569;-81
2021/01/08 06:16:01;;;;;;;9.13;6.90;;;1.50;99.90;;;;;;6109679;23;20184;-81
2021/01/08 06:18:29;;;;;;;8.13;6.10;;;1.50;99.90;;;;;;6109262;23;20215;-80
2021/01/08 06:21:03;;;;;;;7.25;5.05;;;1.50;99.90;;;;;;6108772;23;20200;-81
2021/01/08 06:23:34;;;;;;;7.93;6.45;;;1.50;99.90;;;;;;6108628;23;20172;-81
2021/01/08 06:26:01;;;;;;;8.60;6.05;;;1.40;99.90;;;;;;6109073;23;20181;-80
2021/01/08 06:28:34;;;;;;;6.22;5.43;;;1.40;99.90;;;;;;6109321;23;20208;-81
2021/01/08 06:31:05;;;;;;;7.63;6.13;;;1.40;99.90;;;;;;6109298;23;20189;-81
2021/01/08 06:33:35;;;;;;;8.65;7.25;;;1.50;99.90;;;;;;6108985;23;20175;-80
2021/01/08 06:36:15;;;;;;;7.22;6.53;;;1.50;99.90;;;;;;6109227;23;20169;-81
2021/01/08 06:38:45;;;;;;;9.27;7.55;;;1.40;99.90;;;;;;6109742;23;20533;-80
2021/01/08 06:41:13;;;;;;;9.02;6.90;;;1.30;99.90;;;;;;6109483;23;20165;-81
2021/01/08 06:43:41;;;;;;;7.93;6.25;;;1.40;99.90;;;;;;6108654;23;20184;-81
2021/01/08 06:46:22;;;;;;;7.78;6.38;;;1.40;99.90;;;;;;6108473;23;20257;-80
2021/01/08 06:48:52;;;;;;;5.75;4.47;;;1.30;99.90;;;;;;6108637;23;20204;-81
2021/01/08 06:51:25;;;;;;;7.97;7.05;;;1.30;99.90;;;;;;6109442;23;20189;-79
2021/01/08 06:53:56;;;;;;;11.02;6.22;;;1.30;99.90;;;;;;6109225;23;20168;-81
2021/01/08 06:56:28;;;;;;;6.90;5.70;;;1.30;99.90;;;;;;6109767;23;20219;-81
2021/01/08 06:58:55;;;;;;;6.30;5.35;;;1.30;99.90;;;;;;6108942;23;20232;-80
2021/01/08 07:01:28;;;;;;;7.07;6.20;;;1.30;99.90;;;;;;6108604;23;20509;-81
2021/01/08 07:03:54;;;;;;;8.93;7.05;;;1.30;99.90;;;;;;6109035;23;20173;-81
2021/01/08 07:06:21;;;;;;;12.15;7.03;;;1.30;99.90;;;;;;6109149;23;20188;-81
2021/01/08 07:08:48;;;;;;;8.32;6.10;;;1.30;99.90;;;;;;6109059;23;20206;-81
2021/01/08 07:11:26;;;;;;;7.32;6.10;;;1.40;99.90;;;;;;6109568;23;20201;-81
2021/01/08 07:14:04;;;;;;;6.57;5.97;;;1.40;99.90;;;;;;6110436;23;20191;-81
2021/01/08 07:16:31;;;;;;;10.43;7.43;;;1.50;99.90;;;;;;6110097;23;20165;-81
2021/01/08 07:19:04;;;;;;;6.38;5.15;;;1.60;99.90;;;;;;6109380;23;20260;-81
2021/01/08 07:21:32;;;;;;;7.30;6.10;;;1.50;99.90;;;;;;6108621;23;20754;-81
2021/01/08 07:23:59;;;;;;;9.40;6.80;;;1.50;99.90;;;;;;6109125;23;20185;-81
2021/01/08 07:26:28;;;;;;;5.78;4.63;;;1.50;99.90;;;;;;6108930;23;20180;-80
2021/01/08 07:28:55;;;;;;;6.43;5.20;;;1.50;99.90;;;;;;6109252;23;20236;-81
2021/01/08 07:31:31;;;;;;;7.78;6.15;;;1.60;99.90;;;;;;6108463;23;20201;-80
2021/01/08 07:33:59;;;;;;;7.88;7.05;;;1.60;99.90;;;;;;6109056;23;20168;-80
2021/01/08 07:36:27;;;;;;;6.88;6.25;;;1.60;99.90;;;;;;6107743;23;20212;-81
2021/01/08 07:38:54;;;;;;;9.00;6.60;;;1.60;99.90;;;;;;6103679;23;20205;-80
2021/01/08 07:41:39;;;;;;;10.57;6.50;;;1.60;99.90;;;;;;6102167;23;20183;-79
2021/01/08 07:44:30;;;;;;;5.80;5.20;;;1.50;99.90;;;;;;6102063;23;20235;-79
2021/01/08 07:46:56;;;;;;;7.38;5.95;;;1.50;99.90;;;;;;6101122;23;20189;-79
2021/01/08 07:49:28;;;;;;;6.68;5.55;;;1.40;99.90;;;;;;6103266;23;20203;-80
2021/01/08 07:51:55;;;;;;;6.35;5.75;;;1.50;99.90;;;;;;6103374;23;20191;-80
2021/01/08 07:54:54;;;;;;;7.40;6.50;;;1.50;99.90;;;;;;6103983;23;20180;-80
2021/01/08 07:57:21;;;;;;;7.50;6.40;;;1.60;99.90;;;;;;6014980;23;20207;-80
2021/01/08 07:59:48;;;;;;;7.32;5.40;;;1.60;99.90;;;;;;6014838;23;20179;-79
2021/01/08 08:02:14;;;;;;;7.40;6.35;;;1.60;99.90;;;;;;6053770;23;20189;-80
2021/01/08 08:04:40;;;;;;;6.65;5.70;;;1.70;99.90;;;;;;6103979;23;20184;-79
2021/01/08 08:07:10;;;;;;;7.15;5.05;;;1.70;99.90;;;;;;6103541;23;20207;-80
2021/01/08 08:09:37;;;;;;;7.80;5.78;;;1.70;99.90;;;;;;6103311;23;20185;-80
2021/01/08 08:12:09;;;;;;;6.72;6.15;;;1.80;99.90;;;;;;6103540;23;20192;-80
2021/01/08 08:14:37;;;;;;;6.78;5.60;;;1.80;99.90;;;;;;6103478;23;20180;-78
2021/01/08 08:17:04;;;;;;;7.32;6.63;;;1.70;99.90;;;;;;6103594;23;20201;-80
2021/01/08 08:19:33;;;;;;;7.00;6.20;;;1.70;99.90;;;;;;6103554;23;20187;-77
2021/01/08 08:21:59;;;;;;;7.22;6.50;;;1.80;99.90;;;;;;6102995;23;20185;-79
2021/01/08 08:24:28;;;;;;;7.00;5.57;;;1.80;99.90;;;;;;6102462;23;20255;-79
2021/01/08 08:26:54;;;;;;;9.43;6.75;;;1.90;99.90;;;;;;6101069;23;20216;-79
2021/01/08 08:29:22;;;;;;;7.03;6.32;;;1.80;99.90;;;;;;6101590;23;20232;-78
2021/01/08 08:31:50;;;;;;;8.07;7.28;;;1.90;99.90;;;;;;6102328;23;20185;-79
2021/01/08 08:34:27;;;;;;;7.45;5.68;;;1.90;99.90;;;;;;6101823;23;20220;-79
2021/01/08 08:36:53;;;;;;;6.72;6.05;;;1.80;99.90;;;;;;6101901;23;20169;-79
2021/01/08 08:39:19;;;;;;;6.40;5.82;;;1.80;99.90;;;;;;6102520;23;20181;-79
2021/01/08 08:41:48;;;;;;;8.55;6.70;;;1.90;99.90;;;;;;6101875;23;20216;-79
2021/01/08 08:44:16;;;;;;;7.43;5.60;;;1.80;99.90;;;;;;6102190;23;20208;-80
2021/01/08 08:46:44;;;;;;;7.97;6.07;;;1.70;99.90;;;;;;6102368;23;20196;-80
2021/01/08 08:49:12;;;;;;;9.55;6.90;;;1.80;99.90;;;;;;6102166;23;20192;-79
2021/01/08 08:51:41;;;;;;;8.63;6.60;;;1.80;99.90;;;;;;6101211;23;20188;-79
2021/01/08 08:54:08;;;;;;;9.05;6.53;;;1.90;99.90;;;;;;6101455;23;20185;-79
2021/01/08 08:56:35;;;;;;;9.35;5.60;;;2.00;99.90;;;;;;6101761;23;20208;-79
2021/01/08 08:59:01;;;;;;;9.13;5.88;;;1.90;99.90;;;;;;6102654;23;20224;-79
2021/01/08 09:01:38;;;;;;;6.97;5.85;;;2.00;99.90;;;;;;6101197;23;20195;-78
2021/01/08 09:04:05;;;;;;;5.68;4.72;;;2.00;99.90;;;;;;6102229;23;20176;-80
2021/01/08 09:06:36;;;;;;;7.22;6.45;;;2.00;99.90;;;;;;6102148;23;20208;-80
2021/01/08 09:09:14;;;;;;;10.40;6.63;;;2.00;99.90;;;;;;6103050;23;20201;-80
2021/01/08 09:11:59;;;;;;;5.53;5.07;;;2.00;99.90;;;;;;6103452;23;20165;-80
2021/01/08 09:14:29;;;;;;;7.15;6.45;;;1.90;99.90;;;;;;6103311;23;20176;-80
2021/01/08 09:17:02;;;;;;;8.52;5.72;;;2.00;99.90;;;;;;6103430;23;20185;-80
2021/01/08 09:19:38;;;;;;;7.60;6.55;;;2.00;99.90;;;;;;6103400;23;20240;-81
2021/01/08 09:22:07;;;;;;;8.98;8.18;;;2.10;99.90;;;;;;6103552;23;20165;-84
2021/01/08 09:24:54;;;;;;;6.07;5.38;;;2.10;99.90;;;;;;6098558;23;20430;-85
2021/01/08 09:27:21;;;;;;;4.40;4.00;;;2.20;99.90;;;;;;6097261;23;20232;-84
2021/01/08 09:29:50;;;;;;;6.20;4.50;;;2.30;99.90;;;;;;6098668;23;20204;-86
2021/01/08 09:32:38;;;;;;;4.22;3.70;;;2.20;99.90;;;;;;6100100;23;20184;-84
2021/01/08 09:35:08;;;;;;;4.57;4.15;;;2.10;99.90;;;;;;6099359;23;20216;-82
2021/01/08 09:38:15;;;;;;;;;;;;;;;;;;;;;
2021/01/08 09:40:43;;;;;;;4.43;4.03;;;2.20;99.90;;;;;;6063983;23;20188;-83
2021/01/08 09:43:19;;;;;;;4.93;4.10;;;2.20;99.90;;;;;;6105507;23;20212;-85
2021/01/08 09:52:17;;;;;;;3.15;2.95;;;2.30;99.90;;;;;;6038288;23;20184;-86
2021/01/08 10:04:28;;;;;;;2.30;2.00;;;2.60;99.90;;;;;;5865694;24;20695;-85
2021/01/08 10:06:58;;;;;;;3.70;2.78;;;2.60;99.90;;;;;;5985030;24;20175;-81
2021/01/08 10:09:47;;;;;;;4.05;2.80;;;2.60;99.90;;;;;;6065845;23;20181;-83
2021/01/08 10:12:16;;;;;;;4.38;4.07;;;2.50;99.90;;;;;;6089663;23;20629;-83
2021/01/08 10:14:42;;;;;;;2.60;2.40;;;2.50;99.90;;;;;;6107160;23;20633;-83
2021/01/08 10:17:13;;;;;;;5.60;2.75;;;2.50;99.90;;;;;;6105660;23;20201;-82
2021/01/08 10:19:55;;;;;;;3.53;2.80;;;2.50;99.90;;;;;;6105176;23;20161;-84
2021/01/08 10:22:22;;;;;;;2.53;2.28;;;2.40;99.90;;;;;;6104798;23;20632;-84
2021/01/08 10:24:48;;;;;;;2.60;2.40;;;2.40;99.90;;;;;;6107406;23;20204;-84
2021/01/08 10:27:14;;;;;;;3.20;2.90;;;2.50;99.90;;;;;;6105755;23;20200;-82
2021/01/08 10:29:41;;;;;;;2.72;2.53;;;2.60;99.90;;;;;;6106320;23;20535;-82
2021/01/08 10:32:09;;;;;;;2.97;2.75;;;2.60;99.90;;;;;;6106155;23;20212;-82
2021/01/08 10:34:45;;;;;;;3.42;3.13;;;2.50;99.90;;;;;;6108442;23;20212;-84
2021/01/08 10:40:53;;;;;;;3.17;2.90;;;2.40;99.90;;;;;;6090120;23;20181;-84
2021/01/08 10:43:35;;;;;;;4.05;2.38;;;2.40;99.90;;;;;;6106648;23;20243;-85
2021/01/08 10:46:02;;;;;;;2.35;2.15;;;2.30;99.90;;;;;;6105279;23;20191;-82
2021/01/08 10:48:29;;;;;;;2.45;2.13;;;2.40;99.90;;;;;;6106498;23;20200;-84
2021/01/08 10:50:55;;;;;;;2.47;2.28;;;2.40;99.90;;;;;;6106537;23;20200;-84
2021/01/08 10:53:21;;;;;;;3.83;3.53;;;2.40;99.90;;;;;;6104933;23;20209;-83
2021/01/08 10:55:48;;;;;;;4.00;3.60;;;2.30;99.90;;;;;;6105312;23;20180;-83
2021/01/08 10:58:15;;;;;;;5.30;3.97;;;2.40;99.90;;;;;;6105453;23;20211;-84
2021/01/08 11:00:42;;;;;;;3.80;3.15;;;2.50;99.90;;;;;;6106877;23;20488;-84
2021/01/08 11:03:08;;;;;;;4.00;3.42;;;2.60;99.90;;;;;;6106522;23;20180;-83
2021/01/08 11:05:38;;;;;;;3.10;2.70;;;2.60;99.90;;;;;;6105118;23;20180;-83
2021/01/08 11:08:05;;;;;;;4.57;2.78;;;2.50;99.90;;;;;;6104449;23;20226;-84
2021/01/08 11:10:31;;;;;;;3.92;3.30;;;2.40;99.90;;;;;;6106248;23;20200;-85
2021/01/08 11:12:58;;;;;;;5.40;3.58;;;2.40;99.90;;;;;;6107006;23;20553;-83
2021/01/08 11:15:24;;;;;;;3.30;3.00;;;2.30;99.90;;;;;;6106339;23;20184;-84
2021/01/08 11:17:51;;;;;;;4.10;3.70;;;2.50;99.90;;;;;;6106257;23;20201;-84
2021/01/08 11:20:27;;;;;;;3.63;3.20;;;2.70;99.90;;;;;;6104911;23;20200;-85
2021/01/08 11:23:45;;;;;;;3.35;2.85;;;2.70;99.90;;;;;;6104533;23;20169;-85
2021/01/08 11:29:33;;;;;;;6.13;3.72;;;2.60;99.90;;;;;;6044009;23;20174;-84
2021/01/08 11:32:00;;;;;;;4.35;3.53;;;2.70;99.90;;;;;;6099751;23;20704;-84
2021/01/08 11:34:26;;;;;;;3.25;2.97;;;2.70;99.90;;;;;;6104128;23;20176;-84
2021/01/08 11:36:56;;;;;;;3.60;3.30;;;3.00;99.90;;;;;;6107297;23;20180;-85
2021/01/08 11:39:23;;;;;;;2.47;2.28;;;3.20;99.90;;;;;;6107847;23;20191;-85
2021/01/08 11:41:49;;;;;;;4.47;2.70;;;3.50;99.90;;;;;;6107212;23;20177;-85
2021/01/08 11:44:16;;;;;;;3.35;3.05;;;3.80;99.90;;;;;;6107189;23;20180;-85
2021/01/08 11:46:43;;;;;;;3.35;3.05;;;3.40;99.90;;;;;;6105002;23;20444;-84
2021/01/08 11:49:10;;;;;;;3.13;2.88;;;3.20;99.90;;;;;;6107090;23;20180;-85
2021/01/08 11:51:36;;;;;;;3.63;2.92;;;3.10;99.90;;;;;;6104090;23;20203;-85
2021/01/08 11:54:03;;;;;;;3.60;3.38;;;3.20;99.90;;;;;;6104606;23;20795;-85
2021/01/08 11:56:30;;;;;;;4.47;3.33;;;3.20;99.90;;;;;;6105991;23;20520;-84
2021/01/08 11:58:57;;;;;;;3.60;3.22;;;3.10;99.90;;;;;;6103008;23;20204;-82
2021/01/08 12:01:27;;;;;;;3.08;2.78;;;2.90;99.90;;;;;;6106571;23;20181;-83
2021/01/08 12:03:56;;;;;;;4.57;3.40;;;2.80;99.90;;;;;;6107522;23;20180;-84
2021/01/08 12:06:29;;;;;;;3.30;3.00;;;2.80;99.90;;;;;;6107548;23;20185;-84
2021/01/08 12:08:56;;;;;;;3.95;3.65;;;2.70;99.90;;;;;;6105284;23;20201;-84
2021/01/08 12:11:23;;;;;;;2.72;2.30;;;2.50;99.90;;;;;;6106052;23;20239;-84
2021/01/08 12:13:49;;;;;;;3.63;3.33;;;2.50;99.90;;;;;;6107087;23;20187;-85
2021/01/08 12:16:29;;;;;;;3.70;3.40;;;2.30;99.90;;;;;;6104858;23;20189;-84
2021/01/08 12:24:07;;;;;;;3.45;3.15;;;2.10;99.90;;;;;;6124560;23;20195;-83
2021/01/08 12:26:34;;;;;;;3.95;3.65;;;2.00;99.90;;;;;;6133562;23;20263;-84
2021/01/08 12:29:50;;;;;;;4.03;3.20;;;1.80;99.90;;;;;;6134250;23;20200;-84
2021/01/08 12:33:10;;;;;;;4.00;3.33;;;1.70;99.90;;;;;;6109226;23;20187;-85
2021/01/08 12:36:30;;;;;;;4.35;3.95;;;1.70;99.90;;;;;;6009419;23;20186;-85
2021/01/08 12:46:29;;;;;;;4.88;4.00;;;1.50;99.90;;;;;;6047690;23;20165;-83
2021/01/08 12:49:05;;;;;;;3.35;2.95;;;1.60;99.90;;;;;;6045742;23;20281;-83
2021/01/08 12:51:58;;;;;;;3.05;2.75;;;1.60;99.90;;;;;;6045423;23;20218;-84
2021/01/08 12:54:24;;;;;;;3.65;2.75;;;1.60;99.90;;;;;;6132918;23;20191;-84
2021/01/08 12:56:50;;;;;;;5.40;3.78;;;1.80;99.90;;;;;;6135525;23;20184;-84
2021/01/08 12:59:23;;;;;;;4.18;3.78;;;1.70;99.90;;;;;;6135135;23;20186;-84
2021/01/08 13:01:56;;;;;;;6.68;5.68;;;1.80;99.90;;;;;;6135382;23;20195;-85
2021/01/08 13:04:23;;;;;;;4.10;3.85;;;1.80;99.90;;;;;;6136336;23;20164;-85
2021/01/08 13:06:49;;;;;;;6.28;3.70;;;1.90;99.90;;;;;;6137898;23;20540;-85
2021/01/08 13:09:15;;;;;;;5.78;3.92;;;1.80;99.90;;;;;;6135923;23;20190;-84
2021/01/08 13:11:41;;;;;;;5.80;3.90;;;1.80;99.90;;;;;;6135115;23;20200;-84
2021/01/08 13:14:07;;;;;;;4.05;3.58;;;1.80;99.90;;;;;;6135538;23;20179;-83
2021/01/08 13:16:33;;;;;;;3.88;3.20;;;1.70;99.90;;;;;;6129987;23;20659;-84
2021/01/08 13:19:00;;;;;;;5.60;5.03;;;1.70;99.90;;;;;;6135557;23;20200;-85
2021/01/08 13:21:27;;;;;;;6.70;3.70;;;1.70;99.90;;;;;;6137587;23;20177;-85
2021/01/08 13:23:53;;;;;;;3.95;3.65;;;1.70;99.90;;;;;;6136180;23;20196;-86
2021/01/08 13:43:22;;;;;;;4.10;3.78;;;1.80;99.90;;;;;;6088957;23;20180;-83
2021/01/08 13:45:50;;;;;;;5.75;4.60;;;1.90;99.90;;;;;;6128098;23;20180;-83
2021/01/08 13:48:33;;;;;;;;;;;;;;;;;;;;;
2021/01/08 13:51:17;;;;;;;4.63;4.03;;;2.00;99.90;;;;;;6125988;23;20223;-83
2021/01/08 13:54:02;;;;;;;5.07;4.40;;;2.10;99.90;;;;;;6134193;23;20187;-83
2021/01/08 13:56:58;;;;;;;5.65;4.07;;;2.10;99.90;;;;;;6133586;23;20585;-84
2021/01/08 13:59:27;;;;;;;5.55;4.40;;;2.20;99.90;;;;;;6067264;23;20272;-80